Time;durP1;ratioP1;P1;durP2;ratioP2;P2;SDS_P1;SDS_P2;PMS_P1;PMS_P2;Temp;Humidity;BMP_temperature;BMP_pressure;BME280_temperature;BME280_humidity;BME280_pressure;Samples;Min_cycle;Max_cycle;Signal;HPM_P1;HPM_P2
2022/08/31 00:06:18;;;;;;;3.10;0.80;;;;;;;-140.72;0.00;52415.22;5052231;28;20372;-70
2022/08/31 00:08:44;;;;;;;1.65;0.70;;;;;;;-140.72;0.00;52388.84;5058618;28;20066;-69
2022/08/31 00:11:12;;;;;;;1.67;0.98;;;;;;;-140.72;0.00;52405.06;5058257;28;20040;-70
2022/08/31 00:13:39;;;;;;;1.05;0.65;;;;;;;-140.72;0.00;52398.97;5051567;28;20453;-72
2022/08/31 00:16:05;;;;;;;1.20;0.70;;;;;;;-140.72;0.00;52403.03;5063139;28;20079;-70
2022/08/31 00:18:31;;;;;;;3.22;0.60;;;;;;;-140.72;0.00;52431.44;5064139;28;20362;-70
2022/08/31 00:20:57;;;;;;;1.33;0.60;;;;;;;-140.72;0.00;52401.00;5075152;28;20035;-70
2022/08/31 00:23:22;;;;;;;1.10;0.73;;;;;;;-140.72;0.00;52415.22;5087808;28;20070;-72
2022/08/31 00:25:48;;;;;;;1.23;0.90;;;;;;;-140.72;0.00;52419.28;5082147;28;20507;-70
2022/08/31 00:28:15;;;;;;;2.80;0.90;;;;;;;-140.72;0.00;52447.69;5080129;28;20020;-72
2022/08/31 00:30:41;;;;;;;1.33;0.68;;;;;;;-140.72;0.00;52403.03;5049643;28;20028;-70
2022/08/31 00:33:08;;;;;;;0.70;0.60;;;;;;;-140.72;0.00;52401.00;5062823;28;20093;-71
2022/08/31 00:35:35;;;;;;;1.20;0.80;;;;;;;-140.72;0.00;52407.09;5056935;28;20111;-69
2022/08/31 00:38:03;;;;;;;1.83;0.98;;;;;;;-140.72;0.00;52423.31;5054703;28;20021;-69
2022/08/31 00:40:28;;;;;;;1.52;0.85;;;;;;;-140.72;0.00;52407.09;5057717;28;20108;-70
2022/08/31 00:42:54;;;;;;;0.85;0.60;;;;;;;-140.72;0.00;52413.19;5083237;28;20465;-71
2022/08/31 00:45:20;;;;;;;2.40;0.88;;;;;;;-140.72;0.00;52423.31;5081025;28;20032;-70
2022/08/31 00:47:45;;;;;;;2.30;1.08;;;;;;;-140.72;0.00;52429.41;5071325;28;20051;-70
2022/08/31 00:50:14;;;;;;;1.27;0.68;;;;;;;-140.72;0.00;52403.03;5073039;28;20032;-72
2022/08/31 00:52:45;;;;;;;0.95;0.50;;;;;;;-140.72;0.00;52421.28;5058924;28;20449;-71
2022/08/31 00:55:19;;;;;;;1.00;0.70;;;;;;;-140.72;0.00;52453.75;5069161;28;20121;-70
2022/08/31 00:57:48;;;;;;;1.40;0.70;;;;;;;-140.72;0.00;52459.84;5070086;28;20036;-70
2022/08/31 01:00:19;;;;;;;1.40;0.82;;;;;;;-140.72;0.00;52427.38;5074836;28;20024;-69
2022/08/31 01:02:45;;;;;;;1.95;0.90;;;;;;;-140.72;0.00;52447.69;5064346;28;20020;-70
2022/08/31 01:05:11;;;;;;;1.70;0.88;;;;;;;-140.72;0.00;52459.84;5087491;28;20028;-71
2022/08/31 01:07:37;;;;;;;1.20;0.77;;;;;;;-140.72;0.00;52445.66;5061796;28;20246;-69
2022/08/31 01:10:03;;;;;;;1.80;0.80;;;;;;;-140.72;0.00;52405.06;5061234;28;20306;-69
2022/08/31 01:12:29;;;;;;;1.77;1.10;;;;;;;-140.72;0.00;52467.97;5070430;28;20055;-70
2022/08/31 01:14:55;;;;;;;1.25;0.70;;;;;;;-140.72;0.00;52470.00;5072944;28;20052;-69
2022/08/31 01:17:21;;;;;;;2.00;0.98;;;;;;;-140.72;0.00;52451.72;5074847;28;20032;-69
2022/08/31 01:20:05;;;;;;;2.55;0.93;;;;;;;-140.72;0.00;52421.28;5083909;28;20183;-69
2022/08/31 01:23:02;;;;;;;2.13;0.93;;;;;;;-140.72;0.00;52451.72;5054771;28;20032;-69
2022/08/31 01:25:28;;;;;;;2.58;0.80;;;;;;;-140.72;0.00;52433.47;5066700;28;20477;-69
2022/08/31 01:27:56;;;;;;;1.00;0.50;;;;;;;-140.72;0.00;52461.88;5069376;28;20103;-69
2022/08/31 01:30:24;;;;;;;3.65;0.70;;;;;;;-140.72;0.00;52437.53;5072762;28;20028;-71
2022/08/31 01:32:50;;;;;;;0.85;0.47;;;;;;;-140.72;0.00;52423.31;5071162;28;20036;-69
2022/08/31 01:35:16;;;;;;;1.30;0.80;;;;;;;-140.72;0.00;52445.66;5083920;28;20028;-70
2022/08/31 01:37:42;;;;;;;0.73;0.45;;;;;;;-140.72;0.00;52488.25;5073112;28;20093;-70
2022/08/31 01:40:08;;;;;;;4.97;1.08;;;;;;;-140.72;0.00;52435.50;5072474;28;20462;-69
2022/08/31 01:42:33;;;;;;;3.47;0.73;;;;;;;-140.72;0.00;52431.44;5064086;28;20272;-70
2022/08/31 01:44:59;;;;;;;1.05;0.70;;;;;;;-140.72;0.00;52453.75;5070274;28;20035;-70
2022/08/31 01:47:24;;;;;;;1.60;0.77;;;;;;;-140.72;0.00;52443.63;5076194;28;20100;-69
2022/08/31 01:49:49;;;;;;;1.80;0.98;;;;;;;-140.72;0.00;52435.50;5092512;28;20020;-70
2022/08/31 01:52:15;;;;;;;1.00;0.70;;;;;;;-140.72;0.00;52484.19;5080436;28;20148;-69
2022/08/31 01:54:40;;;;;;;1.08;0.75;;;;;;;-140.72;0.00;52455.78;5064148;28;20393;-69
2022/08/31 01:57:06;;;;;;;5.60;0.90;;;;;;;-140.72;0.00;52463.91;5071866;28;20031;-70
2022/08/31 01:59:31;;;;;;;1.27;0.63;;;;;;;-140.72;0.00;52461.88;5072299;28;20353;-71
2022/08/31 02:01:57;;;;;;;1.00;0.60;;;;;;;-140.72;0.00;52478.13;5065357;28;20086;-69
2022/08/31 02:04:24;;;;;;;1.73;0.55;;;;;;;-140.72;0.00;52472.03;5062510;28;20024;-70
2022/08/31 02:06:52;;;;;;;1.02;0.60;;;;;;;-140.72;0.00;52459.84;5092164;28;20377;-69
2022/08/31 02:09:19;;;;;;;1.42;0.70;;;;;;;-140.72;0.00;52455.78;5073882;28;20028;-70
2022/08/31 02:11:44;;;;;;;1.85;0.98;;;;;;;-140.72;0.00;52447.69;5060617;28;20039;-71
2022/08/31 02:14:10;;;;;;;1.13;0.60;;;;;;;-140.72;0.00;52457.81;5069979;28;20045;-68
2022/08/31 02:16:36;;;;;;;1.02;0.63;;;;;;;-140.72;0.00;52451.72;5072046;28;20024;-70
2022/08/31 02:19:03;;;;;;;0.98;0.40;;;;;;;-140.72;0.00;52463.91;5086456;28;20020;-69
2022/08/31 02:21:29;;;;;;;2.05;0.85;;;;;;;-140.72;0.00;52427.38;5077711;28;20139;-72
2022/08/31 02:23:54;;;;;;;1.50;0.85;;;;;;;-140.72;0.00;52498.41;5087283;28;20032;-70
2022/08/31 02:26:20;;;;;;;1.95;0.82;;;;;;;-140.72;0.00;52482.16;5090560;28;20024;-71
2022/08/31 02:28:46;;;;;;;1.85;0.98;;;;;;;-140.72;0.00;52447.69;5078583;28;20036;-70
2022/08/31 02:31:11;;;;;;;1.67;1.17;;;;;;;-140.72;0.00;52455.78;5072485;28;20036;-69
2022/08/31 02:33:37;;;;;;;2.22;1.17;;;;;;;-140.72;0.00;52445.66;5078492;28;20406;-69
2022/08/31 02:36:03;;;;;;;1.33;0.70;;;;;;;-140.72;0.00;52463.91;5084404;28;20147;-69
2022/08/31 02:38:30;;;;;;;4.10;1.10;;;;;;;-140.72;0.00;52455.78;5072716;28;20036;-71
2022/08/31 02:40:56;;;;;;;1.30;0.80;;;;;;;-140.72;0.00;52451.72;5067572;28;20039;-71
2022/08/31 02:43:22;;;;;;;0.75;0.57;;;;;;;-140.72;0.00;52447.69;5055136;28;20083;-72
2022/08/31 02:45:47;;;;;;;5.18;1.15;;;;;;;-140.72;0.00;52476.09;5056963;28;20025;-70
2022/08/31 02:48:13;;;;;;;1.13;0.77;;;;;;;-140.72;0.00;52447.69;5071072;28;20108;-70
2022/08/31 02:50:44;;;;;;;2.53;1.00;;;;;;;-140.72;0.00;52472.03;5063048;28;20044;-71
2022/08/31 02:53:12;;;;;;;0.85;0.55;;;;;;;-140.72;0.00;52478.13;5057974;28;20043;-70
2022/08/31 02:55:38;;;;;;;1.00;0.70;;;;;;;-140.72;0.00;52451.72;5064228;28;20036;-70
2022/08/31 02:58:03;;;;;;;2.85;1.38;;;;;;;-140.72;0.00;52500.44;5053355;28;20037;-68
2022/08/31 03:00:29;;;;;;;1.80;0.82;;;;;;;-140.72;0.00;52476.09;5083770;28;20112;-70
2022/08/31 03:02:55;;;;;;;1.08;0.80;;;;;;;-140.72;0.00;52480.16;5057462;28;20055;-68
2022/08/31 03:05:20;;;;;;;1.83;0.80;;;;;;;-140.72;0.00;52480.16;5070694;28;20033;-69
2022/08/31 03:07:48;;;;;;;2.15;0.98;;;;;;;-140.72;0.00;52512.59;5058092;28;20538;-70
2022/08/31 03:10:15;;;;;;;1.40;1.02;;;;;;;-140.72;0.00;52492.31;5062888;28;20032;-70
2022/08/31 03:12:40;;;;;;;2.25;1.33;;;;;;;-140.72;0.00;52490.28;5083538;28;20043;-70
2022/08/31 03:15:07;;;;;;;2.13;1.00;;;;;;;-140.72;0.00;52465.94;5072325;28;20045;-69
2022/08/31 03:17:33;;;;;;;4.30;0.95;;;;;;;-140.72;0.00;52494.34;5078322;28;20028;-72
2022/08/31 03:20:01;;;;;;;1.48;0.82;;;;;;;-140.72;0.00;52486.22;5070816;28;20036;-71
2022/08/31 03:22:28;;;;;;;0.68;0.43;;;;;;;-140.72;0.00;52467.97;5062153;28;20379;-70
2022/08/31 03:24:55;;;;;;;2.08;0.98;;;;;;;-140.72;0.00;52480.16;5065674;28;20097;-70
2022/08/31 03:27:21;;;;;;;0.82;0.65;;;;;;;-140.72;0.00;52447.69;5070845;28;20020;-71
2022/08/31 03:29:46;;;;;;;1.67;0.90;;;;;;;-140.72;0.00;52455.78;5054878;28;20433;-70
2022/08/31 03:32:12;;;;;;;1.60;0.80;;;;;;;-140.72;0.00;52488.25;5079917;28;20035;-69
2022/08/31 03:34:38;;;;;;;1.60;0.80;;;;;;;-140.72;0.00;52508.56;5071112;28;20025;-70
2022/08/31 03:37:03;;;;;;;1.83;0.90;;;;;;;-140.72;0.00;52482.16;5050949;28;20028;-69
2022/08/31 03:39:29;;;;;;;1.80;1.27;;;;;;;-140.72;0.00;52532.91;5050309;28;20468;-69
2022/08/31 03:41:54;;;;;;;0.60;0.57;;;;;;;-140.72;0.00;52474.06;5051118;28;20029;-72
2022/08/31 03:44:22;;;;;;;2.90;0.93;;;;;;;-140.72;0.00;52476.09;5062689;28;20024;-70
2022/08/31 03:46:53;;;;;;;1.10;0.90;;;;;;;-140.72;0.00;52478.13;5072011;28;20113;-70
2022/08/31 03:49:19;;;;;;;1.25;0.77;;;;;;;-140.72;0.00;52478.13;5069577;28;20031;-70
2022/08/31 03:51:44;;;;;;;1.52;1.15;;;;;;;-140.72;0.00;52518.69;5070625;28;20029;-70
2022/08/31 03:54:10;;;;;;;1.17;0.63;;;;;;;-140.72;0.00;52490.28;5061303;28;20030;-72
2022/08/31 03:56:37;;;;;;;1.95;0.80;;;;;;;-140.72;0.00;52492.31;5062763;28;20078;-70
2022/08/31 03:59:03;;;;;;;1.65;0.95;;;;;;;-140.72;0.00;52484.19;5059381;28;20025;-71
2022/08/31 04:01:28;;;;;;;2.63;1.23;;;;;;;-140.72;0.00;52463.91;5052378;28;20055;-71
2022/08/31 04:03:54;;;;;;;1.33;0.80;;;;;;;-140.72;0.00;52484.19;5059118;28;20025;-71
2022/08/31 04:06:20;;;;;;;2.55;1.33;;;;;;;-140.72;0.00;52504.50;5063225;28;20446;-70
2022/08/31 04:08:46;;;;;;;4.18;1.15;;;;;;;-140.72;0.00;52470.00;5061478;28;20365;-70
2022/08/31 04:11:15;;;;;;;2.80;0.80;;;;;;;-140.72;0.00;52516.66;5057276;28;20043;-71
2022/08/31 04:13:41;;;;;;;1.23;0.73;;;;;;;-140.72;0.00;52451.72;5057296;28;20028;-70
2022/08/31 04:16:08;;;;;;;2.35;1.30;;;;;;;-140.72;0.00;52463.91;5061129;28;20132;-69
2022/08/31 04:18:35;;;;;;;1.60;0.90;;;;;;;-140.72;0.00;52496.38;5065863;28;20041;-69
2022/08/31 04:21:00;;;;;;;1.75;0.82;;;;;;;-140.72;0.00;52500.44;5059416;28;20056;-69
2022/08/31 04:23:28;;;;;;;2.22;1.33;;;;;;;-140.72;0.00;52484.19;5053019;28;20113;-70
2022/08/31 04:25:55;;;;;;;1.48;0.82;;;;;;;-140.72;0.00;52492.31;5065112;28;20020;-70
2022/08/31 04:28:20;;;;;;;1.38;0.80;;;;;;;-140.72;0.00;52512.59;5054422;28;20017;-71
2022/08/31 04:30:47;;;;;;;1.70;1.13;;;;;;;-140.72;0.00;52478.13;5059372;28;20036;-70
2022/08/31 04:33:13;;;;;;;1.30;0.85;;;;;;;-140.72;0.00;52459.84;5061397;28;20060;-71
2022/08/31 04:35:39;;;;;;;3.67;1.40;;;;;;;-140.72;0.00;52488.25;5061188;28;20480;-70
2022/08/31 04:38:05;;;;;;;1.75;1.20;;;;;;;-140.72;0.00;52463.91;5062598;28;20024;-71
2022/08/31 04:40:30;;;;;;;1.65;1.13;;;;;;;-140.72;0.00;52472.03;5061858;28;20480;-72
2022/08/31 04:42:56;;;;;;;1.85;0.93;;;;;;;-140.72;0.00;52504.50;5054425;28;20178;-69
2022/08/31 04:45:23;;;;;;;3.20;1.60;;;;;;;-140.72;0.00;52496.38;5061655;28;20017;-69
2022/08/31 04:47:48;;;;;;;1.70;0.93;;;;;;;-140.72;0.00;52494.34;5069332;28;20030;-70
2022/08/31 04:50:15;;;;;;;2.03;0.93;;;;;;;-140.72;0.00;52476.09;5069074;28;20028;-69
2022/08/31 04:52:41;;;;;;;1.35;0.90;;;;;;;-140.72;0.00;52510.59;5069317;28;20044;-71
2022/08/31 04:55:07;;;;;;;1.75;0.75;;;;;;;-140.72;0.00;52453.75;5059842;28;20029;-69
2022/08/31 04:57:34;;;;;;;3.03;1.10;;;;;;;-140.72;0.00;52508.56;5065304;28;20031;-69
2022/08/31 05:00:00;;;;;;;1.70;1.02;;;;;;;-140.72;0.00;52504.50;5069430;28;20107;-69
2022/08/31 05:02:25;;;;;;;2.22;0.80;;;;;;;-140.72;0.00;52498.41;5081346;28;20533;-68
2022/08/31 05:04:51;;;;;;;3.13;1.63;;;;;;;-140.72;0.00;52504.50;5079902;28;20028;-71
2022/08/31 05:07:16;;;;;;;2.53;1.13;;;;;;;-140.72;0.00;52500.44;5088701;28;20028;-72
2022/08/31 05:09:41;;;;;;;1.50;1.05;;;;;;;-140.72;0.00;52492.31;5078283;28;20396;-71
2022/08/31 05:12:07;;;;;;;1.50;0.60;;;;;;;-140.72;0.00;52528.84;5054364;28;20028;-71
2022/08/31 05:14:34;;;;;;;1.50;0.85;;;;;;;-140.72;0.00;52480.16;5058936;28;20077;-72
2022/08/31 05:17:00;;;;;;;2.05;1.25;;;;;;;-140.72;0.00;52502.47;5076572;28;20043;-70
2022/08/31 05:19:26;;;;;;;6.88;1.20;;;;;;;-140.72;0.00;52492.31;5056047;28;20103;-71
2022/08/31 05:21:51;;;;;;;1.60;1.02;;;;;;;-140.72;0.00;52506.53;5054059;28;20162;-71
2022/08/31 05:24:21;;;;;;;1.27;0.60;;;;;;;-140.72;0.00;52467.97;5068357;28;20547;-71
2022/08/31 05:26:50;;;;;;;1.02;0.63;;;;;;;-140.72;0.00;52490.28;5061545;28;20024;-70
2022/08/31 05:29:20;;;;;;;1.27;0.90;;;;;;;-140.72;0.00;52498.41;5058814;28;20457;-71
2022/08/31 05:31:46;;;;;;;1.20;0.70;;;;;;;-140.72;0.00;52526.81;5056600;28;20025;-72
2022/08/31 05:34:13;;;;;;;1.52;0.70;;;;;;;-140.72;0.00;52488.25;5056752;28;20029;-70
2022/08/31 05:36:40;;;;;;;1.13;0.70;;;;;;;-140.72;0.00;52506.53;5062406;28;20048;-71
2022/08/31 05:39:08;;;;;;;1.33;0.60;;;;;;;-140.72;0.00;52504.50;5048682;28;20021;-71
2022/08/31 05:41:34;;;;;;;3.10;0.98;;;;;;;-140.72;0.00;52506.53;5051434;28;20059;-71
2022/08/31 05:44:01;;;;;;;0.90;0.35;;;;;;;-140.72;0.00;52459.84;5068957;28;20056;-71
2022/08/31 05:46:28;;;;;;;0.77;0.47;;;;;;;-140.72;0.00;52472.03;5061373;28;20118;-71
2022/08/31 05:48:54;;;;;;;0.65;0.52;;;;;;;-140.72;0.00;52496.38;5063320;28;20021;-71
2022/08/31 05:51:20;;;;;;;1.90;0.55;;;;;;;-140.72;0.00;52472.03;5059820;28;20052;-69
2022/08/31 05:53:46;;;;;;;1.23;0.50;;;;;;;-140.72;0.00;52484.19;5055695;28;20032;-72
2022/08/31 05:56:15;;;;;;;2.70;0.47;;;;;;;-140.72;0.00;52480.16;5053256;28;20120;-71
2022/08/31 05:58:42;;;;;;;2.45;0.85;;;;;;;-140.72;0.00;52461.88;5057380;28;20036;-71
2022/08/31 06:01:19;;;;;;;1.27;0.57;;;;;;;-140.72;0.00;52463.91;5057110;28;20122;-70
2022/08/31 06:03:45;;;;;;;1.38;0.82;;;;;;;-140.72;0.00;52516.66;5057258;28;20024;-70
2022/08/31 06:06:11;;;;;;;0.73;0.40;;;;;;;-140.72;0.00;52435.50;5056959;28;20033;-71
2022/08/31 06:08:37;;;;;;;2.63;0.30;;;;;;;-140.72;0.00;52435.50;5062072;28;20031;-71
2022/08/31 06:11:04;;;;;;;0.52;0.40;;;;;;;-140.72;0.00;52461.88;5053662;28;20459;-73
2022/08/31 06:13:30;;;;;;;0.93;0.65;;;;;;;-140.72;0.00;52490.28;5054125;28;20025;-70
2022/08/31 06:15:58;;;;;;;0.65;0.45;;;;;;;-140.72;0.00;52484.19;5068942;28;20127;-70
2022/08/31 06:18:24;;;;;;;2.50;0.57;;;;;;;-140.72;0.00;52451.72;5070423;28;20365;-69
2022/08/31 06:21:00;;;;;;;2.05;0.90;;;;;;;-140.72;0.00;52459.84;5057070;28;20104;-70
2022/08/31 06:23:25;;;;;;;0.45;0.35;;;;;;;-140.72;0.00;52476.09;5061213;28;20028;-72
2022/08/31 06:26:01;;;;;;;0.70;0.35;;;;;;;-140.72;0.00;52457.81;5059040;28;20032;-71
2022/08/31 06:28:28;;;;;;;0.63;0.32;;;;;;;-140.72;0.00;52459.84;5070219;28;20044;-70
2022/08/31 06:30:54;;;;;;;2.25;0.80;;;;;;;-140.72;0.00;52447.69;5057570;28;20024;-69
2022/08/31 06:33:19;;;;;;;0.80;0.50;;;;;;;-140.72;0.00;52455.78;5059182;28;20086;-70
2022/08/31 06:35:46;;;;;;;0.93;0.40;;;;;;;-140.72;0.00;52467.97;5068516;28;20021;-71
2022/08/31 06:38:12;;;;;;;2.08;0.43;;;;;;;-140.72;0.00;52447.69;5061349;28;20036;-70
2022/08/31 06:40:37;;;;;;;0.50;0.25;;;;;;;-140.72;0.00;52435.50;5060654;28;20031;-71
2022/08/31 06:43:03;;;;;;;1.52;0.55;;;;;;;-140.72;0.00;52429.41;5056851;28;20237;-74
2022/08/31 06:45:28;;;;;;;1.48;0.60;;;;;;;-140.72;0.00;52451.72;5068624;28;20478;-75
2022/08/31 06:47:57;;;;;;;1.08;0.47;;;;;;;-140.72;0.00;52447.69;5077734;28;20230;-77
2022/08/31 06:50:22;;;;;;;1.20;0.40;;;;;;;-140.72;0.00;52463.91;5060156;28;20025;-73
2022/08/31 06:52:48;;;;;;;0.50;0.30;;;;;;;-140.72;0.00;52419.28;5073459;28;20028;-74
2022/08/31 06:55:13;;;;;;;0.68;0.40;;;;;;;-140.72;0.00;52425.34;5071082;28;20056;-74
2022/08/31 06:57:38;;;;;;;0.70;0.40;;;;;;;-140.72;0.00;52437.53;5055881;28;20029;-72
2022/08/31 07:00:06;;;;;;;0.73;0.40;;;;;;;-140.72;0.00;52419.28;5064206;28;20043;-73
2022/08/31 07:02:31;;;;;;;2.22;0.40;;;;;;;-140.72;0.00;52472.03;5061492;28;20181;-74
2022/08/31 07:04:57;;;;;;;0.82;0.40;;;;;;;-140.72;0.00;52419.28;5058191;28;20064;-76
2022/08/31 07:07:22;;;;;;;0.52;0.28;;;;;;;-140.72;0.00;52388.84;5071056;28;20102;-73
2022/08/31 07:09:48;;;;;;;0.50;0.20;;;;;;;-140.72;0.00;52439.56;5058662;28;20023;-73
2022/08/31 07:12:13;;;;;;;0.82;0.32;;;;;;;-140.72;0.00;52409.13;5070824;28;20032;-73
2022/08/31 07:14:39;;;;;;;0.88;0.50;;;;;;;-140.72;0.00;52431.44;5060466;28;20037;-73
2022/08/31 07:17:04;;;;;;;3.35;0.40;;;;;;;-140.72;0.00;52425.34;5073939;28;20486;-74
2022/08/31 07:19:30;;;;;;;0.95;0.50;;;;;;;-140.72;0.00;52419.28;5068792;28;20021;-73
2022/08/31 07:21:59;;;;;;;0.73;0.40;;;;;;;-140.72;0.00;52411.16;5068684;28;20140;-74
2022/08/31 07:24:29;;;;;;;0.80;0.43;;;;;;;-140.72;0.00;52447.69;5072747;28;20465;-72
2022/08/31 07:26:57;;;;;;;1.08;0.20;;;;;;;-140.72;0.00;52411.16;5067985;28;20024;-74
2022/08/31 07:29:29;;;;;;;1.00;0.22;;;;;;;-140.72;0.00;52415.22;5077523;28;20032;-74
2022/08/31 07:31:56;;;;;;;3.40;0.30;;;;;;;-140.72;0.00;52467.97;5057085;28;20405;-73
2022/08/31 07:34:24;;;;;;;0.65;0.40;;;;;;;-140.72;0.00;52459.84;5065520;28;20082;-73
2022/08/31 07:42:22;;;;;;;0.20;0.17;;;;;;;-140.72;0.00;52403.03;5067194;28;20584;-72
2022/08/31 07:44:50;;;;;;;0.57;0.30;;;;;;;-140.72;0.00;52411.16;5067698;28;21294;-73
2022/08/31 07:47:18;;;;;;;1.25;0.40;;;;;;;-140.72;0.00;52398.97;5068001;28;20024;-71
2022/08/31 07:49:47;;;;;;;0.73;0.35;;;;;;;-140.72;0.00;52384.78;5067098;28;20035;-72
2022/08/31 07:52:15;;;;;;;3.58;0.50;;;;;;;-140.72;0.00;52405.06;5066176;28;20405;-73
2022/08/31 07:54:43;;;;;;;1.02;0.40;;;;;;;-140.72;0.00;52427.38;5065890;28;20036;-73
2022/08/31 07:57:08;;;;;;;0.47;0.30;;;;;;;-140.72;0.00;52394.91;5066948;28;20036;-74
2022/08/31 07:59:36;;;;;;;2.08;0.30;;;;;;;-140.72;0.00;52403.03;5069395;28;20032;-74
2022/08/31 08:02:02;;;;;;;0.60;0.30;;;;;;;-140.72;0.00;52392.88;5065107;28;20035;-74
2022/08/31 08:04:29;;;;;;;0.90;0.45;;;;;;;-140.72;0.00;52370.56;5061681;28;20385;-74
2022/08/31 08:06:59;;;;;;;1.00;0.40;;;;;;;-140.72;0.00;52368.53;5062315;28;20056;-75
2022/08/31 08:09:25;;;;;;;4.30;0.60;;;;;;;-140.72;0.00;52362.44;5061472;28;20051;-74
2022/08/31 08:11:54;;;;;;;0.77;0.52;;;;;;;-140.72;0.00;52388.84;5064544;28;20500;-74
2022/08/31 08:14:21;;;;;;;1.38;0.43;;;;;;;-140.72;0.00;52376.66;5066119;28;20060;-75
2022/08/31 08:16:46;;;;;;;0.80;0.50;;;;;;;-140.72;0.00;52350.28;5061030;28;20033;-75
2022/08/31 08:19:12;;;;;;;0.30;0.20;;;;;;;-140.72;0.00;52354.34;5067666;28;20036;-75
2022/08/31 08:21:37;;;;;;;0.40;0.30;;;;;;;-140.72;0.00;52366.50;5068028;28;20024;-75
2022/08/31 08:24:03;;;;;;;0.85;0.45;;;;;;;-140.72;0.00;52362.44;5064233;28;20032;-75
2022/08/31 08:26:29;;;;;;;0.70;0.40;;;;;;;-140.72;0.00;52346.22;5062466;28;20248;-74
2022/08/31 08:28:54;;;;;;;6.53;0.55;;;;;;;-140.72;0.00;52352.31;5063419;28;20130;-74
2022/08/31 08:31:23;;;;;;;0.75;0.30;;;;;;;-140.72;0.00;52356.38;5065869;28;20021;-75
2022/08/31 08:33:50;;;;;;;3.13;0.33;;;;;;;-140.72;0.00;52325.94;5068220;28;20028;-74
2022/08/31 08:36:18;;;;;;;1.40;0.38;;;;;;;-140.72;0.00;52346.22;5067007;28;20028;-74
2022/08/31 08:38:46;;;;;;;0.40;0.20;;;;;;;-140.72;0.00;52330.00;5065893;28;20036;-75
2022/08/31 08:41:18;;;;;;;0.88;0.40;;;;;;;-140.72;0.00;52327.97;5064655;28;20033;-74
2022/08/31 08:43:46;;;;;;;0.20;0.20;;;;;;;-140.72;0.00;52297.53;5062913;28;20108;-75
2022/08/31 08:46:13;;;;;;;1.23;0.43;;;;;;;-140.72;0.00;52267.09;5064804;28;20476;-74
2022/08/31 08:48:42;;;;;;;0.50;0.20;;;;;;;-140.72;0.00;52283.31;5066731;28;20519;-74
2022/08/31 08:51:20;;;;;;;0.85;0.30;;;;;;;-140.72;0.00;52265.06;5063126;28;20028;-74
2022/08/31 08:53:48;;;;;;;0.60;0.30;;;;;;;-140.72;0.00;52252.88;5065158;28;20413;-75
2022/08/31 08:56:14;;;;;;;1.17;0.38;;;;;;;-140.72;0.00;52258.97;5065757;28;20148;-75
2022/08/31 08:58:44;;;;;;;2.72;0.30;;;;;;;-140.72;0.00;52293.47;5069670;28;20483;-75
2022/08/31 09:01:18;;;;;;;1.17;0.30;;;;;;;-140.72;0.00;52200.13;5064412;28;20123;-74
2022/08/31 09:03:54;;;;;;;0.50;0.25;;;;;;;-140.72;0.00;52244.78;5063309;28;20028;-74
2022/08/31 09:06:52;;;;;;;1.30;0.40;;;;;;;-140.72;0.00;52163.59;5065192;28;20047;-74
2022/08/31 09:09:39;;;;;;;0.60;0.28;;;;;;;-140.72;0.00;52157.53;5063792;28;20031;-74
2022/08/31 09:12:29;;;;;;;0.35;0.20;;;;;;;-140.72;0.00;52147.38;5066106;28;20494;-74
2022/08/31 09:15:06;;;;;;;0.68;0.32;;;;;;;-140.72;0.00;52125.06;5065526;28;20052;-74
2022/08/31 09:17:54;;;;;;;0.63;0.20;;;;;;;-140.72;0.00;52145.34;5065468;28;20052;-74
2022/08/31 09:20:20;;;;;;;1.05;0.40;;;;;;;-140.72;0.00;52100.72;5071291;28;20059;-74
2022/08/31 09:22:49;;;;;;;0.75;0.38;;;;;;;-140.72;0.00;52121.00;5067507;28;20067;-74
2022/08/31 09:25:25;;;;;;;2.45;0.30;;;;;;;-140.72;0.00;52100.72;5070323;28;20478;-72
2022/08/31 09:27:56;;;;;;;1.23;0.30;;;;;;;-140.72;0.00;52078.38;5066547;28;20033;-74
2022/08/31 09:30:43;;;;;;;2.28;0.35;;;;;;;-140.72;0.00;52076.34;5064429;28;20507;-73
2022/08/31 09:33:21;;;;;;;0.63;0.30;;;;;;;-140.72;0.00;52062.16;5068063;28;20383;-75
2022/08/31 09:35:49;;;;;;;0.82;0.28;;;;;;;-140.72;0.00;52049.97;5068873;28;20036;-77
2022/08/31 09:38:39;;;;;;;1.02;0.30;;;;;;;-140.72;0.00;52078.38;5070165;28;20500;-73
2022/08/31 09:41:27;;;;;;;0.73;0.30;;;;;;;-140.72;0.00;52056.06;5067465;28;20109;-74
2022/08/31 09:43:54;;;;;;;0.52;0.22;;;;;;;-140.72;0.00;52041.88;5055779;28;20029;-73
2022/08/31 09:46:27;;;;;;;1.08;0.30;;;;;;;-140.72;0.00;52049.97;5071404;28;20024;-74
2022/08/31 09:49:01;;;;;;;2.75;0.43;;;;;;;-140.72;0.00;52072.31;5069562;28;20490;-74
2022/08/31 09:51:33;;;;;;;0.70;0.10;;;;;;;-140.72;0.00;52064.19;5069829;28;20032;-74
2022/08/31 09:57:04;;;;;;;2.00;0.63;;;;;;;-140.72;0.00;51983.03;5068017;28;20097;-74
2022/08/31 09:59:40;;;;;;;0.52;0.38;;;;;;;-140.72;0.00;52033.75;5073749;28;20037;-74
2022/08/31 10:02:32;;;;;;;5.25;0.43;;;;;;;-140.72;0.00;52025.63;5065299;28;20033;-73
2022/08/31 10:05:03;;;;;;;1.85;0.35;;;;;;;-140.72;0.00;52009.41;5068844;28;20028;-71
2022/08/31 10:07:50;;;;;;;1.33;0.30;;;;;;;-140.72;0.00;52009.41;5074035;28;20657;-70
2022/08/31 10:10:21;;;;;;;1.30;0.40;;;;;;;-140.72;0.00;51956.66;5065543;28;20089;-70
2022/08/31 10:12:54;;;;;;;0.93;0.40;;;;;;;-140.72;0.00;52001.28;5068827;28;20503;-71
2022/08/31 10:15:30;;;;;;;1.13;0.30;;;;;;;-140.72;0.00;51993.19;5071804;28;20047;-69
2022/08/31 10:18:30;;;;;;;0.40;0.30;;;;;;;-140.72;0.00;51983.03;5069721;28;20405;-71
2022/08/31 10:21:06;;;;;;;1.20;0.30;;;;;;;-140.72;0.00;52025.63;5066560;28;20044;-70
2022/08/31 10:23:52;;;;;;;0.65;0.30;;;;;;;-140.72;0.00;51942.44;5067179;28;20024;-70
2022/08/31 10:26:30;;;;;;;0.50;0.10;;;;;;;-140.72;0.00;51991.16;5065651;28;20028;-69
2022/08/31 10:29:05;;;;;;;0.68;0.30;;;;;;;-140.72;0.00;51964.78;5069724;28;20135;-70
2022/08/31 10:31:45;;;;;;;0.95;0.45;;;;;;;-140.72;0.00;51960.72;5068744;28;20426;-69
2022/08/31 10:37:23;;;;;;;1.05;0.30;;;;;;;-140.72;0.00;51944.47;5065911;28;20089;-72
2022/08/31 10:39:57;;;;;;;3.70;0.65;;;;;;;-140.72;0.00;51964.78;5059023;28;20029;-72
2022/08/31 10:42:36;;;;;;;1.63;0.30;;;;;;;-140.72;0.00;51932.31;5065352;28;20127;-71
2022/08/31 10:45:14;;;;;;;0.47;0.30;;;;;;;-140.72;0.00;51883.63;5063082;28;20028;-71
2022/08/31 10:47:46;;;;;;;1.17;0.40;;;;;;;-140.72;0.00;51830.88;5065154;28;20535;-70
2022/08/31 10:50:21;;;;;;;1.48;0.32;;;;;;;-140.72;0.00;51838.97;5068580;28;20020;-71
2022/08/31 10:52:57;;;;;;;0.63;0.28;;;;;;;-140.72;0.00;51851.16;5067228;28;20035;-72
2022/08/31 10:55:36;;;;;;;1.30;0.30;;;;;;;-140.72;0.00;51855.22;5067547;28;20029;-71
2022/08/31 10:58:16;;;;;;;0.45;0.20;;;;;;;-140.72;0.00;51851.16;5067472;28;20513;-71
2022/08/31 11:01:01;;;;;;;2.05;0.55;;;;;;;-140.72;0.00;51851.16;5065304;28;20049;-72
2022/08/31 11:03:44;;;;;;;0.60;0.30;;;;;;;-140.72;0.00;51802.47;5066420;28;20059;-72
2022/08/31 11:06:22;;;;;;;0.75;0.20;;;;;;;-140.72;0.00;51830.88;5058692;28;20399;-70
2022/08/31 11:09:19;;;;;;;0.40;0.17;;;;;;;-140.72;0.00;51784.19;5066603;28;20361;-70
2022/08/31 11:11:50;;;;;;;1.23;0.28;;;;;;;-140.72;0.00;51782.16;5065413;28;20024;-71
2022/08/31 11:14:35;;;;;;;0.20;0.10;;;;;;;-140.72;0.00;51796.38;5062986;28;20036;-71
2022/08/31 11:17:09;;;;;;;0.93;0.25;;;;;;;-140.72;0.00;51782.16;5061203;28;20096;-70
2022/08/31 11:20:16;;;;;;;2.08;0.30;;;;;;;-140.72;0.00;51737.53;5066876;28;20020;-71
2022/08/31 11:23:05;;;;;;;0.55;0.10;;;;;;;-140.72;0.00;51711.16;4986170;28;20026;-71
2022/08/31 11:25:54;;;;;;;0.90;0.30;;;;;;;-140.72;0.00;51725.38;5022875;28;20131;-71
2022/08/31 11:28:32;;;;;;;0.75;0.40;;;;;;;-140.72;0.00;51767.97;5065779;28;20028;-70
2022/08/31 11:31:00;;;;;;;0.45;0.20;;;;;;;-140.72;0.00;51721.31;5057495;28;20032;-70
2022/08/31 11:33:30;;;;;;;2.17;0.30;;;;;;;-140.72;0.00;51709.13;5060446;28;20484;-72
2022/08/31 11:36:05;;;;;;;0.88;0.20;;;;;;;-140.72;0.00;51824.78;5056279;28;20036;-71
2022/08/31 11:38:51;;;;;;;4.13;0.32;;;;;;;-140.72;0.00;51814.63;5060563;28;20036;-69
2022/08/31 11:41:35;;;;;;;1.02;0.40;;;;;;;-140.72;0.00;51731.44;5061059;28;20054;-71
2022/08/31 11:44:03;;;;;;;3.03;0.17;;;;;;;-140.72;0.00;51739.56;5063495;28;20028;-72
2022/08/31 11:46:42;;;;;;;2.08;0.35;;;;;;;-140.72;0.00;51701.03;5066412;28;20047;-69
2022/08/31 11:49:14;;;;;;;0.57;0.20;;;;;;;-140.72;0.00;51674.66;5063743;28;20082;-71
2022/08/31 11:51:39;;;;;;;0.40;0.20;;;;;;;-140.72;0.00;51688.84;5062693;28;20480;-71